sensor_id;sensor_type;location;lat;lon;timestamp;pressure;altitude;pressure_sealevel;temperature;humidity
70900;BME280;67902;52.154;5.430;2023-05-28T00:01:46;102255.63;;;13.65;80.28
70900;BME280;67902;52.154;5.430;2023-05-28T00:04:13;102251.19;;;13.52;81.04
70900;BME280;67902;52.154;5.430;2023-05-28T00:06:39;102245.75;;;13.34;81.43
70900;BME280;67902;52.154;5.430;2023-05-28T00:09:07;102241.06;;;13.23;81.95
70900;BME280;67902;52.154;5.430;2023-05-28T00:11:34;102244.53;;;13.12;82.33
70900;BME280;67902;52.154;5.430;2023-05-28T00:14:00;102237.44;;;13.11;82.61
70900;BME280;67902;52.154;5.430;2023-05-28T00:16:27;102244.47;;;13.18;82.83
70900;BME280;67902;52.154;5.430;2023-05-28T00:18:53;102239.50;;;13.15;82.65
70900;BME280;67902;52.154;5.430;2023-05-28T00:21:20;102245.16;;;13.14;82.50
70900;BME280;67902;52.154;5.430;2023-05-28T00:23:46;102243.25;;;13.14;82.16
70900;BME280;67902;52.154;5.430;2023-05-28T00:26:13;102246.88;;;13.08;83.28
70900;BME280;67902;52.154;5.430;2023-05-28T00:28:39;102241.25;;;13.03;83.21
70900;BME280;67902;52.154;5.430;2023-05-28T00:31:06;102242.16;;;12.97;83.78
70900;BME280;67902;52.154;5.430;2023-05-28T00:33:32;102252.78;;;12.80;83.94
70900;BME280;67902;52.154;5.430;2023-05-28T00:35:59;102244.47;;;12.75;84.36
70900;BME280;67902;52.154;5.430;2023-05-28T00:38:26;102236.47;;;12.80;85.04
70900;BME280;67902;52.154;5.430;2023-05-28T00:40:52;102231.38;;;12.91;84.79
70900;BME280;67902;52.154;5.430;2023-05-28T00:43:20;102224.19;;;12.96;84.61
70900;BME280;67902;52.154;5.430;2023-05-28T00:45:49;102217.94;;;12.96;84.63
70900;BME280;67902;52.154;5.430;2023-05-28T00:48:17;102226.28;;;12.94;84.26
70900;BME280;67902;52.154;5.430;2023-05-28T00:50:44;102213.53;;;12.95;84.12
70900;BME280;67902;52.154;5.430;2023-05-28T00:53:11;102211.50;;;12.90;84.39
70900;BME280;67902;52.154;5.430;2023-05-28T00:55:38;102205.81;;;12.92;83.99
70900;BME280;67902;52.154;5.430;2023-05-28T00:58:05;102203.34;;;12.90;83.95
70900;BME280;67902;52.154;5.430;2023-05-28T01:00:35;102202.97;;;12.87;84.08
70900;BME280;67902;52.154;5.430;2023-05-28T01:03:02;102200.25;;;12.87;83.97
70900;BME280;67902;52.154;5.430;2023-05-28T01:05:29;102198.41;;;12.80;84.27
70900;BME280;67902;52.154;5.430;2023-05-28T01:08:02;102197.59;;;12.80;83.86
70900;BME280;67902;52.154;5.430;2023-05-28T01:10:31;102194.97;;;12.73;84.73
70900;BME280;67902;52.154;5.430;2023-05-28T01:12:58;102196.41;;;12.76;84.19
70900;BME280;67902;52.154;5.430;2023-05-28T01:15:26;102198.13;;;12.70;83.96
70900;BME280;67902;52.154;5.430;2023-05-28T01:17:57;102204.06;;;12.61;83.92
70900;BME280;67902;52.154;5.430;2023-05-28T01:20:28;102199.91;;;12.58;84.53
70900;BME280;67902;52.154;5.430;2023-05-28T01:22:59;102205.78;;;12.55;83.98
70900;BME280;67902;52.154;5.430;2023-05-28T01:25:27;102205.03;;;12.48;83.93
70900;BME280;67902;52.154;5.430;2023-05-28T01:27:55;102204.69;;;12.38;84.01
70900;BME280;67902;52.154;5.430;2023-05-28T01:30:21;102209.38;;;12.31;84.45
70900;BME280;67902;52.154;5.430;2023-05-28T01:32:48;102208.38;;;12.26;84.53
70900;BME280;67902;52.154;5.430;2023-05-28T01:35:14;102208.56;;;12.24;84.48
70900;BME280;67902;52.154;5.430;2023-05-28T01:37:44;102214.91;;;12.18;84.36
70900;BME280;67902;52.154;5.430;2023-05-28T01:40:13;102212.84;;;12.13;84.66
70900;BME280;67902;52.154;5.430;2023-05-28T01:42:43;102206.22;;;12.09;84.42
70900;BME280;67902;52.154;5.430;2023-05-28T01:45:11;102213.06;;;12.12;84.19
70900;BME280;67902;52.154;5.430;2023-05-28T01:47:39;102208.00;;;12.15;84.15
70900;BME280;67902;52.154;5.430;2023-05-28T01:50:06;102203.69;;;12.08;84.67
70900;BME280;67902;52.154;5.430;2023-05-28T01:52:33;102204.28;;;12.10;85.27
70900;BME280;67902;52.154;5.430;2023-05-28T01:55:00;102200.69;;;12.16;85.13
70900;BME280;67902;52.154;5.430;2023-05-28T01:57:26;102202.41;;;12.10;85.30
70900;BME280;67902;52.154;5.430;2023-05-28T01:59:53;102204.09;;;12.11;84.94
70900;BME280;67902;52.154;5.430;2023-05-28T02:02:19;102209.78;;;12.03;85.13
70900;BME280;67902;52.154;5.430;2023-05-28T02:04:48;102204.56;;;12.02;85.27
70900;BME280;67902;52.154;5.430;2023-05-28T02:07:15;102208.56;;;11.99;85.65
70900;BME280;67902;52.154;5.430;2023-05-28T02:09:42;102207.13;;;11.97;85.82
70900;BME280;67902;52.154;5.430;2023-05-28T02:12:08;102211.34;;;11.93;86.38
70900;BME280;67902;52.154;5.430;2023-05-28T02:14:35;102214.28;;;11.85;85.75
70900;BME280;67902;52.154;5.430;2023-05-28T02:17:01;102211.78;;;11.90;86.85
70900;BME280;67902;52.154;5.430;2023-05-28T02:19:28;102205.69;;;11.94;86.64
70900;BME280;67902;52.154;5.430;2023-05-28T02:21:55;102213.34;;;12.04;86.56
70900;BME280;67902;52.154;5.430;2023-05-28T02:24:22;102198.25;;;12.08;86.53
70900;BME280;67902;52.154;5.430;2023-05-28T02:26:48;102201.56;;;12.10;86.38
70900;BME280;67902;52.154;5.430;2023-05-28T02:29:15;102207.22;;;12.15;86.27
70900;BME280;67902;52.154;5.430;2023-05-28T02:31:41;102196.63;;;12.07;86.32
70900;BME280;67902;52.154;5.430;2023-05-28T02:34:08;102204.81;;;12.00;86.16
70900;BME280;67902;52.154;5.430;2023-05-28T02:36:34;102200.47;;;11.93;86.34
70900;BME280;67902;52.154;5.430;2023-05-28T02:39:02;102193.59;;;11.90;86.11
70900;BME280;67902;52.154;5.430;2023-05-28T02:41:29;102198.44;;;11.82;85.96
70900;BME280;67902;52.154;5.430;2023-05-28T02:43:56;102205.78;;;11.81;86.52
70900;BME280;67902;52.154;5.430;2023-05-28T02:46:22;102203.09;;;11.75;86.77
70900;BME280;67902;52.154;5.430;2023-05-28T02:48:48;102205.56;;;11.76;87.08
70900;BME280;67902;52.154;5.430;2023-05-28T02:51:15;102211.47;;;11.73;86.90
70900;BME280;67902;52.154;5.430;2023-05-28T02:53:41;102206.25;;;11.72;87.42
70900;BME280;67902;52.154;5.430;2023-05-28T02:56:08;102211.84;;;11.77;87.35
70900;BME280;67902;52.154;5.430;2023-05-28T02:58:34;102211.56;;;11.85;87.58
70900;BME280;67902;52.154;5.430;2023-05-28T03:01:02;102216.41;;;11.83;86.63
70900;BME280;67902;52.154;5.430;2023-05-28T03:03:29;102211.63;;;11.78;86.64
70900;BME280;67902;52.154;5.430;2023-05-28T03:05:56;102213.94;;;11.75;86.93
70900;BME280;67902;52.154;5.430;2023-05-28T03:08:22;102217.28;;;11.77;86.93
70900;BME280;67902;52.154;5.430;2023-05-28T03:10:49;102212.28;;;11.74;87.02
70900;BME280;67902;52.154;5.430;2023-05-28T03:13:15;102216.41;;;11.83;86.91
70900;BME280;67902;52.154;5.430;2023-05-28T03:15:42;102214.50;;;11.90;87.16
70900;BME280;67902;52.154;5.430;2023-05-28T03:18:08;102220.97;;;11.89;87.05
70900;BME280;67902;52.154;5.430;2023-05-28T03:20:35;102221.00;;;11.82;86.62
70900;BME280;67902;52.154;5.430;2023-05-28T03:23:01;102214.38;;;11.72;86.46
70900;BME280;67902;52.154;5.430;2023-05-28T03:25:28;102211.47;;;11.67;86.58
70900;BME280;67902;52.154;5.430;2023-05-28T03:27:54;102216.50;;;11.70;86.70
70900;BME280;67902;52.154;5.430;2023-05-28T03:30:20;102220.03;;;11.70;86.60
70900;BME280;67902;52.154;5.430;2023-05-28T03:32:50;102218.59;;;11.61;86.79
70900;BME280;67902;52.154;5.430;2023-05-28T03:35:17;102216.50;;;11.56;87.15
70900;BME280;67902;52.154;5.430;2023-05-28T03:37:44;102219.47;;;11.48;86.93
70900;BME280;67902;52.154;5.430;2023-05-28T03:40:11;102215.72;;;11.49;88.05
70900;BME280;67902;52.154;5.430;2023-05-28T03:42:38;102215.50;;;11.51;87.74
70900;BME280;67902;52.154;5.430;2023-05-28T03:45:05;102213.63;;;11.51;87.00
70900;BME280;67902;52.154;5.430;2023-05-28T03:47:32;102220.72;;;11.52;87.38
70900;BME280;67902;52.154;5.430;2023-05-28T03:49:59;102218.88;;;11.46;87.84
70900;BME280;67902;52.154;5.430;2023-05-28T03:52:27;102223.06;;;11.42;87.69
70900;BME280;67902;52.154;5.430;2023-05-28T03:54:53;102222.66;;;11.39;87.87
70900;BME280;67902;52.154;5.430;2023-05-28T03:57:20;102226.16;;;11.46;88.12
70900;BME280;67902;52.154;5.430;2023-05-28T03:59:46;102228.03;;;11.52;88.49
70900;BME280;67902;52.154;5.430;2023-05-28T04:02:13;102229.03;;;11.57;88.57
70900;BME280;67902;52.154;5.430;2023-05-28T04:04:39;102225.72;;;11.55;87.90
70900;BME280;67902;52.154;5.430;2023-05-28T04:07:06;102222.59;;;11.52;88.40
70900;BME280;67902;52.154;5.430;2023-05-28T04:09:33;102225.69;;;11.62;88.38
70900;BME280;67902;52.154;5.430;2023-05-28T04:11:59;102216.50;;;11.70;88.66
70900;BME280;67902;52.154;5.430;2023-05-28T04:14:27;102214.97;;;11.80;88.30
70900;BME280;67902;52.154;5.430;2023-05-28T04:16:53;102219.34;;;11.81;88.17
70900;BME280;67902;52.154;5.430;2023-05-28T04:19:21;102221.81;;;11.83;87.80
70900;BME280;67902;52.154;5.430;2023-05-28T04:21:47;102227.25;;;11.83;87.96
70900;BME280;67902;52.154;5.430;2023-05-28T04:24:13;102223.94;;;11.81;87.75
70900;BME280;67902;52.154;5.430;2023-05-28T04:26:40;102226.03;;;11.79;88.22
70900;BME280;67902;52.154;5.430;2023-05-28T04:29:07;102232.50;;;11.78;88.07
70900;BME280;67902;52.154;5.430;2023-05-28T04:31:34;102231.00;;;11.82;88.12
70900;BME280;67902;52.154;5.430;2023-05-28T04:34:00;102231.84;;;11.82;88.12
70900;BME280;67902;52.154;5.430;2023-05-28T04:36:27;102239.78;;;11.84;88.02
70900;BME280;67902;52.154;5.430;2023-05-28T04:38:56;102235.81;;;11.86;87.84
70900;BME280;67902;52.154;5.430;2023-05-28T04:41:30;102236.00;;;11.85;88.18
70900;BME280;67902;52.154;5.430;2023-05-28T04:43:57;102233.28;;;11.85;88.03
70900;BME280;67902;52.154;5.430;2023-05-28T04:46:24;102243.91;;;11.93;87.95
70900;BME280;67902;52.154;5.430;2023-05-28T04:48:52;102236.56;;;11.93;88.00
70900;BME280;67902;52.154;5.430;2023-05-28T04:51:19;102235.31;;;11.96;87.98
70900;BME280;67902;52.154;5.430;2023-05-28T04:53:47;102235.94;;;11.98;87.68
70900;BME280;67902;52.154;5.430;2023-05-28T04:56:14;102244.69;;;12.00;87.71
70900;BME280;67902;52.154;5.430;2023-05-28T04:58:41;102243.41;;;12.02;87.25
70900;BME280;67902;52.154;5.430;2023-05-28T05:01:08;102249.25;;;12.06;87.36
70900;BME280;67902;52.154;5.430;2023-05-28T05:03:35;102242.94;;;12.12;87.55
70900;BME280;67902;52.154;5.430;2023-05-28T05:06:01;102247.88;;;12.21;87.35
70900;BME280;67902;52.154;5.430;2023-05-28T05:08:29;102244.88;;;12.30;87.31
70900;BME280;67902;52.154;5.430;2023-05-28T05:10:56;102246.88;;;12.41;87.10
70900;BME280;67902;52.154;5.430;2023-05-28T05:13:22;102252.50;;;12.46;86.84
70900;BME280;67902;52.154;5.430;2023-05-28T05:15:49;102246.19;;;12.52;86.82
70900;BME280;67902;52.154;5.430;2023-05-28T05:18:17;102250.88;;;12.63;86.73
70900;BME280;67902;52.154;5.430;2023-05-28T05:20:43;102250.97;;;12.74;86.51
70900;BME280;67902;52.154;5.430;2023-05-28T05:23:10;102252.28;;;12.90;86.46
70900;BME280;67902;52.154;5.430;2023-05-28T05:25:36;102243.97;;;13.03;85.64
70900;BME280;67902;52.154;5.430;2023-05-28T05:28:03;102245.00;;;13.09;85.40
70900;BME280;67902;52.154;5.430;2023-05-28T05:30:29;102245.91;;;13.21;84.63
70900;BME280;67902;52.154;5.430;2023-05-28T05:32:56;102242.44;;;13.32;84.02
70900;BME280;67902;52.154;5.430;2023-05-28T05:35:23;102244.84;;;13.40;83.69
70900;BME280;67902;52.154;5.430;2023-05-28T05:37:49;102244.66;;;13.53;83.44
70900;BME280;67902;52.154;5.430;2023-05-28T05:40:16;102239.06;;;13.66;82.73
70900;BME280;67902;52.154;5.430;2023-05-28T05:42:42;102242.50;;;13.73;82.09
70900;BME280;67902;52.154;5.430;2023-05-28T05:45:09;102246.13;;;13.85;81.95
70900;BME280;67902;52.154;5.430;2023-05-28T05:47:36;102254.41;;;13.90;81.71
70900;BME280;67902;52.154;5.430;2023-05-28T05:50:04;102259.41;;;13.93;81.63
70900;BME280;67902;52.154;5.430;2023-05-28T05:52:31;102253.88;;;14.00;80.74
70900;BME280;67902;52.154;5.430;2023-05-28T05:54:58;102253.84;;;13.88;81.08
70900;BME280;67902;52.154;5.430;2023-05-28T05:57:24;102251.38;;;13.99;80.49
70900;BME280;67902;52.154;5.430;2023-05-28T05:59:53;102249.72;;;14.09;81.45
70900;BME280;67902;52.154;5.430;2023-05-28T06:02:20;102246.00;;;14.22;80.90
70900;BME280;67902;52.154;5.430;2023-05-28T06:04:46;102248.38;;;14.30;80.10
70900;BME280;67902;52.154;5.430;2023-05-28T06:07:13;102244.63;;;14.54;79.66
70900;BME280;67902;52.154;5.430;2023-05-28T06:09:39;102247.97;;;14.79;79.59
70900;BME280;67902;52.154;5.430;2023-05-28T06:12:06;102259.69;;;15.03;78.00
70900;BME280;67902;52.154;5.430;2023-05-28T06:14:32;102246.22;;;15.48;77.44
70900;BME280;67902;52.154;5.430;2023-05-28T06:16:59;102255.47;;;15.87;76.06
70900;BME280;67902;52.154;5.430;2023-05-28T06:19:25;102257.53;;;16.24;74.63
70900;BME280;67902;52.154;5.430;2023-05-28T06:21:52;102254.56;;;16.59;73.72
70900;BME280;67902;52.154;5.430;2023-05-28T06:24:18;102257.47;;;16.86;73.02
70900;BME280;67902;52.154;5.430;2023-05-28T06:26:45;102256.78;;;16.96;71.19
70900;BME280;67902;52.154;5.430;2023-05-28T06:29:11;102254.47;;;16.88;71.45
70900;BME280;67902;52.154;5.430;2023-05-28T06:31:38;102259.38;;;16.86;70.85
70900;BME280;67902;52.154;5.430;2023-05-28T06:34:06;102252.91;;;17.13;71.46
70900;BME280;67902;52.154;5.430;2023-05-28T06:36:33;102257.34;;;17.58;70.35
70900;BME280;67902;52.154;5.430;2023-05-28T06:39:03;102242.31;;;17.82;69.67
70900;BME280;67902;52.154;5.430;2023-05-28T06:41:31;102242.91;;;17.89;68.52
70900;BME280;67902;52.154;5.430;2023-05-28T06:43:57;102250.56;;;17.87;69.04
70900;BME280;67902;52.154;5.430;2023-05-28T06:46:24;102248.75;;;17.98;68.14
70900;BME280;67902;52.154;5.430;2023-05-28T06:48:51;102251.75;;;17.96;69.44
70900;BME280;67902;52.154;5.430;2023-05-28T06:51:17;102247.97;;;18.02;67.54
70900;BME280;67902;52.154;5.430;2023-05-28T06:53:43;102249.28;;;17.94;67.79
70900;BME280;67902;52.154;5.430;2023-05-28T06:56:10;102257.03;;;18.03;68.16
70900;BME280;67902;52.154;5.430;2023-05-28T06:58:37;102250.63;;;17.92;66.97
70900;BME280;67902;52.154;5.430;2023-05-28T07:01:03;102242.59;;;17.85;67.95
70900;BME280;67902;52.154;5.430;2023-05-28T07:03:30;102254.91;;;17.83;67.98
70900;BME280;67902;52.154;5.430;2023-05-28T07:05:57;102257.59;;;17.78;67.30
70900;BME280;67902;52.154;5.430;2023-05-28T07:08:24;102258.94;;;17.75;67.97
70900;BME280;67902;52.154;5.430;2023-05-28T07:10:50;102251.88;;;17.58;67.91
70900;BME280;67902;52.154;5.430;2023-05-28T07:13:17;102263.69;;;17.42;68.80
70900;BME280;67902;52.154;5.430;2023-05-28T07:15:44;102265.53;;;17.36;69.47
70900;BME280;67902;52.154;5.430;2023-05-28T07:18:10;102260.84;;;17.31;69.25
70900;BME280;67902;52.154;5.430;2023-05-28T07:20:37;102273.22;;;17.56;69.01
70900;BME280;67902;52.154;5.430;2023-05-28T07:23:03;102264.78;;;17.84;69.73
70900;BME280;67902;52.154;5.430;2023-05-28T07:25:30;102275.97;;;18.04;68.63
70900;BME280;67902;52.154;5.430;2023-05-28T07:27:57;102282.25;;;18.31;68.49
70900;BME280;67902;52.154;5.430;2023-05-28T07:30:23;102277.06;;;18.62;68.91
70900;BME280;67902;52.154;5.430;2023-05-28T07:32:50;102269.94;;;18.97;66.29
70900;BME280;67902;52.154;5.430;2023-05-28T07:35:16;102275.19;;;19.09;67.52
70900;BME280;67902;52.154;5.430;2023-05-28T07:37:43;102280.16;;;19.12;64.89
70900;BME280;67902;52.154;5.430;2023-05-28T07:40:09;102275.31;;;19.34;64.33
70900;BME280;67902;52.154;5.430;2023-05-28T07:42:37;102277.16;;;19.71;64.51
70900;BME280;67902;52.154;5.430;2023-05-28T07:45:03;102275.59;;;20.00;62.55
70900;BME280;67902;52.154;5.430;2023-05-28T07:47:30;102276.97;;;19.97;61.73
70900;BME280;67902;52.154;5.430;2023-05-28T07:49:57;102276.38;;;19.80;62.65
70900;BME280;67902;52.154;5.430;2023-05-28T07:52:23;102270.25;;;19.63;63.44
70900;BME280;67902;52.154;5.430;2023-05-28T07:54:52;102275.78;;;19.68;62.57
70900;BME280;67902;52.154;5.430;2023-05-28T07:57:18;102283.25;;;19.88;62.14
70900;BME280;67902;52.154;5.430;2023-05-28T07:59:45;102283.31;;;20.13;63.97
70900;BME280;67902;52.154;5.430;2023-05-28T08:02:11;102278.63;;;20.13;63.26
70900;BME280;67902;52.154;5.430;2023-05-28T08:04:38;102274.50;;;20.16;61.19
70900;BME280;67902;52.154;5.430;2023-05-28T08:07:05;102279.53;;;20.34;61.79
70900;BME280;67902;52.154;5.430;2023-05-28T08:09:31;102281.72;;;20.67;61.40
70900;BME280;67902;52.154;5.430;2023-05-28T08:11:59;102280.00;;;21.17;61.16
70900;BME280;67902;52.154;5.430;2023-05-28T08:14:26;102271.28;;;21.69;59.43
70900;BME280;67902;52.154;5.430;2023-05-28T08:16:52;102265.34;;;22.01;57.01
70900;BME280;67902;52.154;5.430;2023-05-28T08:19:19;102271.22;;;22.28;53.31
70900;BME280;67902;52.154;5.430;2023-05-28T08:21:45;102273.19;;;22.56;53.64
70900;BME280;67902;52.154;5.430;2023-05-28T08:24:12;102278.66;;;22.61;56.03
70900;BME280;67902;52.154;5.430;2023-05-28T08:26:38;102281.81;;;22.49;56.90
70900;BME280;67902;52.154;5.430;2023-05-28T08:29:05;102272.75;;;22.44;56.70
70900;BME280;67902;52.154;5.430;2023-05-28T08:31:31;102273.47;;;22.21;55.22
70900;BME280;67902;52.154;5.430;2023-05-28T08:33:58;102271.44;;;22.36;54.37
70900;BME280;67902;52.154;5.430;2023-05-28T08:36:24;102266.75;;;22.37;54.43
70900;BME280;67902;52.154;5.430;2023-05-28T08:38:51;102263.91;;;22.08;56.07
70900;BME280;67902;52.154;5.430;2023-05-28T08:41:17;102256.91;;;22.21;56.99
70900;BME280;67902;52.154;5.430;2023-05-28T08:43:45;102262.38;;;22.65;55.79
70900;BME280;67902;52.154;5.430;2023-05-28T08:46:11;102263.38;;;22.74;53.57
70900;BME280;67902;52.154;5.430;2023-05-28T08:48:40;102263.34;;;22.45;52.63
70900;BME280;67902;52.154;5.430;2023-05-28T08:51:08;102268.84;;;22.11;54.93
70900;BME280;67902;52.154;5.430;2023-05-28T08:53:39;102264.22;;;22.02;54.20
70900;BME280;67902;52.154;5.430;2023-05-28T08:56:06;102258.69;;;22.02;55.40
70900;BME280;67902;52.154;5.430;2023-05-28T08:58:35;102268.38;;;21.99;54.73
70900;BME280;67902;52.154;5.430;2023-05-28T09:01:06;102269.03;;;21.76;54.78
70900;BME280;67902;52.154;5.430;2023-05-28T09:03:33;102274.88;;;21.69;56.51
70900;BME280;67902;52.154;5.430;2023-05-28T09:06:00;102272.13;;;21.69;55.74
70900;BME280;67902;52.154;5.430;2023-05-28T09:08:27;102260.88;;;21.56;55.42
70900;BME280;67902;52.154;5.430;2023-05-28T09:10:58;102263.84;;;21.64;53.17
70900;BME280;67902;52.154;5.430;2023-05-28T09:13:34;102262.97;;;21.74;54.37
70900;BME280;67902;52.154;5.430;2023-05-28T09:16:01;102258.81;;;21.76;55.75
70900;BME280;67902;52.154;5.430;2023-05-28T09:18:27;102256.06;;;21.76;53.40
70900;BME280;67902;52.154;5.430;2023-05-28T09:20:59;102258.22;;;21.89;54.61
70900;BME280;67902;52.154;5.430;2023-05-28T09:23:26;102257.47;;;22.23;52.55
70900;BME280;67902;52.154;5.430;2023-05-28T09:25:55;102260.72;;;22.64;50.75
70900;BME280;67902;52.154;5.430;2023-05-28T09:28:26;102264.25;;;23.22;54.38
70900;BME280;67902;52.154;5.430;2023-05-28T09:31:02;102258.56;;;23.60;50.55
70900;BME280;67902;52.154;5.430;2023-05-28T09:33:29;102260.31;;;24.12;48.65
70900;BME280;67902;52.154;5.430;2023-05-28T09:36:00;102259.69;;;24.53;48.19
70900;BME280;67902;52.154;5.430;2023-05-28T09:38:27;102251.25;;;24.44;49.19
70900;BME280;67902;52.154;5.430;2023-05-28T09:41:03;102247.59;;;24.76;50.04
70900;BME280;67902;52.154;5.430;2023-05-28T09:43:29;102249.84;;;25.33;46.01
70900;BME280;67902;52.154;5.430;2023-05-28T09:46:09;102247.47;;;25.41;47.50
70900;BME280;67902;52.154;5.430;2023-05-28T09:48:35;102248.72;;;25.21;45.28
70900;BME280;67902;52.154;5.430;2023-05-28T09:51:03;102239.69;;;25.29;44.91
70900;BME280;67902;52.154;5.430;2023-05-28T09:53:32;102241.09;;;25.26;48.23
70900;BME280;67902;52.154;5.430;2023-05-28T09:56:02;102238.56;;;25.16;44.78
70900;BME280;67902;52.154;5.430;2023-05-28T09:58:32;102232.91;;;24.94;43.54
70900;BME280;67902;52.154;5.430;2023-05-28T10:01:05;102230.72;;;25.18;45.43
70900;BME280;67902;52.154;5.430;2023-05-28T10:03:48;102232.38;;;25.60;44.69
70900;BME280;67902;52.154;5.430;2023-05-28T10:06:21;102239.97;;;25.55;43.49
70900;BME280;67902;52.154;5.430;2023-05-28T10:08:50;102236.19;;;25.37;45.17
70900;BME280;67902;52.154;5.430;2023-05-28T10:11:22;102237.13;;;25.60;47.42
70900;BME280;67902;52.154;5.430;2023-05-28T10:13:49;102231.22;;;25.75;44.33
70900;BME280;67902;52.154;5.430;2023-05-28T10:16:16;102227.06;;;25.86;45.58
70900;BME280;67902;52.154;5.430;2023-05-28T10:18:43;102226.34;;;26.16;43.90
70900;BME280;67902;52.154;5.430;2023-05-28T10:21:11;102232.94;;;26.42;43.94
70900;BME280;67902;52.154;5.430;2023-05-28T10:23:42;102228.16;;;26.65;41.84
70900;BME280;67902;52.154;5.430;2023-05-28T10:26:11;102229.13;;;26.61;39.42
70900;BME280;67902;52.154;5.430;2023-05-28T10:28:37;102222.75;;;26.60;42.29
70900;BME280;67902;52.154;5.430;2023-05-28T10:31:06;102227.47;;;26.82;40.79
70900;BME280;67902;52.154;5.430;2023-05-28T10:33:43;102221.31;;;26.40;42.32
70900;BME280;67902;52.154;5.430;2023-05-28T10:36:11;102229.03;;;26.21;41.21
70900;BME280;67902;52.154;5.430;2023-05-28T10:38:43;102221.59;;;25.94;42.30
70900;BME280;67902;52.154;5.430;2023-05-28T10:41:10;102224.03;;;25.74;41.33
70900;BME280;67902;52.154;5.430;2023-05-28T10:43:41;102224.75;;;25.79;41.40
70900;BME280;67902;52.154;5.430;2023-05-28T10:46:09;102219.28;;;25.74;44.39
70900;BME280;67902;52.154;5.430;2023-05-28T10:48:40;102228.22;;;25.85;43.39
70900;BME280;67902;52.154;5.430;2023-05-28T10:51:07;102228.47;;;25.97;40.94
70900;BME280;67902;52.154;5.430;2023-05-28T10:53:34;102228.53;;;26.06;43.36
70900;BME280;67902;52.154;5.430;2023-05-28T10:56:01;102227.63;;;26.10;42.03
70900;BME280;67902;52.154;5.430;2023-05-28T10:58:37;102243.88;;;25.67;42.00
70900;BME280;67902;52.154;5.430;2023-05-28T11:03:51;102228.19;;;25.08;42.72
70900;BME280;67902;52.154;5.430;2023-05-28T11:06:18;102228.69;;;25.24;43.98
70900;BME280;67902;52.154;5.430;2023-05-28T11:08:46;102231.78;;;25.50;43.24
70900;BME280;67902;52.154;5.430;2023-05-28T11:11:15;102228.38;;;25.39;44.58
70900;BME280;67902;52.154;5.430;2023-05-28T11:13:48;102227.75;;;25.56;41.94
70900;BME280;67902;52.154;5.430;2023-05-28T11:16:17;102228.38;;;25.25;42.04
70900;BME280;67902;52.154;5.430;2023-05-28T11:19:03;102231.66;;;24.87;43.27
70900;BME280;67902;52.154;5.430;2023-05-28T11:21:30;102225.63;;;24.66;43.83
70900;BME280;67902;52.154;5.430;2023-05-28T11:24:03;102235.91;;;24.79;46.64
70900;BME280;67902;52.154;5.430;2023-05-28T11:26:31;102237.63;;;25.07;44.13
70900;BME280;67902;52.154;5.430;2023-05-28T11:28:58;102232.06;;;25.21;43.75
70900;BME280;67902;52.154;5.430;2023-05-28T11:31:24;102236.78;;;25.07;42.97
70900;BME280;67902;52.154;5.430;2023-05-28T11:33:51;102232.81;;;24.53;44.53
70900;BME280;67902;52.154;5.430;2023-05-28T11:36:20;102231.66;;;24.54;45.48
70900;BME280;67902;52.154;5.430;2023-05-28T11:39:00;102235.34;;;24.82;44.67
70900;BME280;67902;52.154;5.430;2023-05-28T11:41:26;102226.63;;;25.29;43.21
70900;BME280;67902;52.154;5.430;2023-05-28T11:43:53;102226.09;;;25.55;42.54
70900;BME280;67902;52.154;5.430;2023-05-28T11:46:21;102226.34;;;25.80;41.47
70900;BME280;67902;52.154;5.430;2023-05-28T11:48:48;102222.53;;;25.90;42.13
70900;BME280;67902;52.154;5.430;2023-05-28T11:51:15;102218.25;;;25.84;41.66
70900;BME280;67902;52.154;5.430;2023-05-28T11:53:42;102225.94;;;25.87;40.97
70900;BME280;67902;52.154;5.430;2023-05-28T11:56:10;102229.84;;;26.08;43.24
70900;BME280;67902;52.154;5.430;2023-05-28T11:58:37;102228.06;;;26.26;40.78
70900;BME280;67902;52.154;5.430;2023-05-28T12:01:07;102226.84;;;25.96;41.53
70900;BME280;67902;52.154;5.430;2023-05-28T12:03:34;102231.44;;;25.65;41.16
70900;BME280;67902;52.154;5.430;2023-05-28T12:06:01;102232.50;;;25.14;40.29
70900;BME280;67902;52.154;5.430;2023-05-28T12:08:28;102236.59;;;25.03;42.92
70900;BME280;67902;52.154;5.430;2023-05-28T12:11:04;102226.13;;;25.00;43.21
70900;BME280;67902;52.154;5.430;2023-05-28T12:13:33;102227.97;;;25.18;40.73
70900;BME280;67902;52.154;5.430;2023-05-28T12:16:11;102227.75;;;25.56;41.69
70900;BME280;67902;52.154;5.430;2023-05-28T12:18:42;102222.41;;;25.59;41.92
70900;BME280;67902;52.154;5.430;2023-05-28T12:21:11;102211.56;;;26.07;41.08
70900;BME280;67902;52.154;5.430;2023-05-28T12:23:38;102216.88;;;26.39;42.08
70900;BME280;67902;52.154;5.430;2023-05-28T12:26:10;102211.41;;;26.79;39.30
70900;BME280;67902;52.154;5.430;2023-05-28T12:28:39;102212.09;;;26.84;39.18
70900;BME280;67902;52.154;5.430;2023-05-28T12:31:08;102213.22;;;26.53;39.75
70900;BME280;67902;52.154;5.430;2023-05-28T12:33:34;102209.94;;;26.06;39.65
70900;BME280;67902;52.154;5.430;2023-05-28T12:36:01;102211.03;;;25.83;40.18
70900;BME280;67902;52.154;5.430;2023-05-28T12:38:28;102200.59;;;25.66;41.30
70900;BME280;67902;52.154;5.430;2023-05-28T12:40:54;102204.16;;;25.17;40.89
70900;BME280;67902;52.154;5.430;2023-05-28T12:43:22;102208.88;;;25.03;41.26
70900;BME280;67902;52.154;5.430;2023-05-28T12:45:48;102209.09;;;25.20;43.20
70900;BME280;67902;52.154;5.430;2023-05-28T12:48:15;102201.03;;;25.46;41.00
70900;BME280;67902;52.154;5.430;2023-05-28T12:50:41;102195.00;;;26.16;41.87
70900;BME280;67902;52.154;5.430;2023-05-28T12:53:08;102194.66;;;26.70;38.99
70900;BME280;67902;52.154;5.430;2023-05-28T12:55:34;102193.59;;;27.19;38.44